Wakaw, Canada
Current Conditions -  °F | °C
As of 10:00 PM on Saturday 22 Nov 2014 (Local Time) from CYPA Reporting Station
Light Snow Light Snow  
Wind Chill: -3°   Ceiling: 4600
Heat Index: 12°   Visibility: 4mi
Dew Point:   Wind: 14mph
Humidity: 85%   Direction: 50°NE
Pressure: 29.46"   Gusts: 21mph
Location:  52.65°N, 105.73°W
Report Text: CYPA 230400Z 05012G18KT 4SM -SN DRSN SCT020 OVC046 M11/M13 A2946 RMK SC4SC4 /S02/ SLP008
Loading
Personal Weather Stations






























Interactive Weather Map New forecast layout! Learn more

10-Day Weather Forecast

Advertisements
Track Severe Weather on mobile